sensor_id;sensor_type;location;lat;lon;timestamp;pressure;altitude;pressure_sealevel;temperature;humidity
72438;BME280;60444;43.534;-5.674;2022-11-20T00:01:47;101935.63;;;14.20;92.29
72438;BME280;60444;43.534;-5.674;2022-11-20T00:04:12;101907.97;;;14.11;91.99
72438;BME280;60444;43.534;-5.674;2022-11-20T00:06:38;101906.97;;;14.12;91.53
72438;BME280;60444;43.534;-5.674;2022-11-20T00:09:03;101907.13;;;14.09;91.31
72438;BME280;60444;43.534;-5.674;2022-11-20T00:11:31;101920.03;;;14.24;91.21
72438;BME280;60444;43.534;-5.674;2022-11-20T00:13:59;101901.34;;;14.16;92.19
72438;BME280;60444;43.534;-5.674;2022-11-20T00:16:27;101939.78;;;14.29;91.16
72438;BME280;60444;43.534;-5.674;2022-11-20T00:18:55;101929.91;;;14.26;92.17
72438;BME280;60444;43.534;-5.674;2022-11-20T00:21:25;101928.03;;;14.28;91.35
72438;BME280;60444;43.534;-5.674;2022-11-20T00:23:53;101926.34;;;14.24;91.58
72438;BME280;60444;43.534;-5.674;2022-11-20T00:26:21;101934.47;;;14.26;93.08
72438;BME280;60444;43.534;-5.674;2022-11-20T00:28:55;101905.97;;;14.14;92.10
72438;BME280;60444;43.534;-5.674;2022-11-20T00:31:21;101947.88;;;14.30;92.11
72438;BME280;60444;43.534;-5.674;2022-11-20T00:33:47;101919.31;;;14.20;91.96
72438;BME280;60444;43.534;-5.674;2022-11-20T00:36:18;101915.41;;;14.26;92.07
72438;BME280;60444;43.534;-5.674;2022-11-20T00:38:44;101894.06;;;14.17;92.47
72438;BME280;60444;43.534;-5.674;2022-11-20T00:41:12;101922.38;;;14.33;91.67
72438;BME280;60444;43.534;-5.674;2022-11-20T00:43:38;101908.09;;;14.28;92.23
72438;BME280;60444;43.534;-5.674;2022-11-20T00:46:07;101898.00;;;14.30;91.55
72438;BME280;60444;43.534;-5.674;2022-11-20T00:48:33;101902.72;;;14.26;92.14
72438;BME280;60444;43.534;-5.674;2022-11-20T00:50:59;101890.66;;;14.32;91.71
72438;BME280;60444;43.534;-5.674;2022-11-20T00:53:25;101900.81;;;14.28;91.42
72438;BME280;60444;43.534;-5.674;2022-11-20T00:56:02;101907.78;;;14.34;91.90
72438;BME280;60444;43.534;-5.674;2022-11-20T00:58:30;101887.41;;;14.24;91.80
72438;BME280;60444;43.534;-5.674;2022-11-20T01:03:27;101909.19;;;14.42;91.98
72438;BME280;60444;43.534;-5.674;2022-11-20T01:06:00;101906.47;;;14.42;92.04
72438;BME280;60444;43.534;-5.674;2022-11-20T01:08:32;101900.16;;;14.42;92.39
72438;BME280;60444;43.534;-5.674;2022-11-20T01:11:00;101889.41;;;14.39;91.74
72438;BME280;60444;43.534;-5.674;2022-11-20T01:13:26;101884.94;;;14.38;91.55
72438;BME280;60444;43.534;-5.674;2022-11-20T01:16:17;101894.41;;;14.48;91.81
72438;BME280;60444;43.534;-5.674;2022-11-20T01:18:44;101868.06;;;14.30;92.59
72438;BME280;60444;43.534;-5.674;2022-11-20T01:21:13;101872.22;;;14.38;92.02
72438;BME280;60444;43.534;-5.674;2022-11-20T01:23:40;101870.97;;;14.45;92.20
72438;BME280;60444;43.534;-5.674;2022-11-20T01:26:08;101887.13;;;14.48;92.97
72438;BME280;60444;43.534;-5.674;2022-11-20T01:28:35;101888.03;;;14.49;92.87
72438;BME280;60444;43.534;-5.674;2022-11-20T01:31:00;101857.72;;;14.38;92.29
72438;BME280;60444;43.534;-5.674;2022-11-20T01:33:27;101848.97;;;14.31;92.11
72438;BME280;60444;43.534;-5.674;2022-11-20T01:35:53;101856.75;;;14.39;91.96
72438;BME280;60444;43.534;-5.674;2022-11-20T01:38:18;101861.97;;;14.43;91.96
72438;BME280;60444;43.534;-5.674;2022-11-20T01:40:53;101864.03;;;14.38;92.39
72438;BME280;60444;43.534;-5.674;2022-11-20T01:43:19;101881.53;;;14.51;92.30
72438;BME280;60444;43.534;-5.674;2022-11-20T01:46:13;101893.09;;;14.57;92.69
72438;BME280;60444;43.534;-5.674;2022-11-20T01:51:35;101879.50;;;14.57;93.06
72438;BME280;60444;43.534;-5.674;2022-11-20T01:54:06;101861.31;;;14.38;92.27
72438;BME280;60444;43.534;-5.674;2022-11-20T01:56:36;101875.59;;;14.43;93.01
72438;BME280;60444;43.534;-5.674;2022-11-20T01:59:05;101873.81;;;14.42;93.48
72438;BME280;60444;43.534;-5.674;2022-11-20T02:01:32;101888.84;;;14.51;93.11
72438;BME280;60444;43.534;-5.674;2022-11-20T02:03:58;101864.84;;;14.40;92.42
72438;BME280;60444;43.534;-5.674;2022-11-20T02:06:59;101888.41;;;14.60;93.26
72438;BME280;60444;43.534;-5.674;2022-11-20T02:09:25;101868.88;;;14.50;94.06
72438;BME280;60444;43.534;-5.674;2022-11-20T02:11:52;101879.63;;;14.53;93.16
72438;BME280;60444;43.534;-5.674;2022-11-20T02:14:18;101883.97;;;14.57;93.06
72438;BME280;60444;43.534;-5.674;2022-11-20T02:16:48;101891.19;;;14.59;93.01
72438;BME280;60444;43.534;-5.674;2022-11-20T02:19:27;101867.50;;;14.42;94.33
72438;BME280;60444;43.534;-5.674;2022-11-20T02:22:04;101879.41;;;14.58;94.60
72438;BME280;60444;43.534;-5.674;2022-11-20T02:24:31;101863.72;;;14.44;93.93
72438;BME280;60444;43.534;-5.674;2022-11-20T02:27:06;101884.94;;;14.57;94.71
72438;BME280;60444;43.534;-5.674;2022-11-20T02:29:37;101855.72;;;14.41;95.81
72438;BME280;60444;43.534;-5.674;2022-11-20T02:32:04;101885.00;;;14.55;95.00
72438;BME280;60444;43.534;-5.674;2022-11-20T02:34:30;101848.72;;;14.36;94.46
72438;BME280;60444;43.534;-5.674;2022-11-20T02:36:57;101861.25;;;14.40;95.55
72438;BME280;60444;43.534;-5.674;2022-11-20T02:39:25;101875.22;;;14.51;95.63
72438;BME280;60444;43.534;-5.674;2022-11-20T02:41:53;101855.06;;;14.36;96.46
72438;BME280;60444;43.534;-5.674;2022-11-20T02:44:19;101866.31;;;14.47;95.79
72438;BME280;60444;43.534;-5.674;2022-11-20T02:46:45;101864.69;;;14.43;96.54
72438;BME280;60444;43.534;-5.674;2022-11-20T02:49:10;101840.72;;;14.33;95.54
72438;BME280;60444;43.534;-5.674;2022-11-20T02:51:36;101856.69;;;14.40;95.59
72438;BME280;60444;43.534;-5.674;2022-11-20T02:54:01;101848.72;;;14.36;95.66
72438;BME280;60444;43.534;-5.674;2022-11-20T02:56:27;101822.84;;;14.27;96.51
72438;BME280;60444;43.534;-5.674;2022-11-20T02:58:53;101846.00;;;14.36;96.07
72438;BME280;60444;43.534;-5.674;2022-11-20T03:01:18;101846.81;;;14.38;95.44
72438;BME280;60444;43.534;-5.674;2022-11-20T03:03:44;101864.47;;;14.48;96.25
72438;BME280;60444;43.534;-5.674;2022-11-20T03:06:09;101866.31;;;14.47;96.22
72438;BME280;60444;43.534;-5.674;2022-11-20T03:08:35;101828.94;;;14.32;96.36
72438;BME280;60444;43.534;-5.674;2022-11-20T03:11:06;101843.81;;;14.44;96.11
72438;BME280;60444;43.534;-5.674;2022-11-20T03:13:32;101857.19;;;14.48;96.46
72438;BME280;60444;43.534;-5.674;2022-11-20T03:15:57;101823.28;;;14.37;96.59
72438;BME280;60444;43.534;-5.674;2022-11-20T03:18:23;101838.41;;;14.42;97.07
72438;BME280;60444;43.534;-5.674;2022-11-20T03:20:48;101826.66;;;14.42;96.40
72438;BME280;60444;43.534;-5.674;2022-11-20T03:23:14;101825.78;;;14.41;96.18
72438;BME280;60444;43.534;-5.674;2022-11-20T03:25:39;101814.06;;;14.39;96.53
72438;BME280;60444;43.534;-5.674;2022-11-20T03:28:05;101820.09;;;14.46;97.16
72438;BME280;60444;43.534;-5.674;2022-11-20T03:30:30;101825.50;;;14.47;96.71
72438;BME280;60444;43.534;-5.674;2022-11-20T03:32:56;101808.63;;;14.39;96.38
72438;BME280;60444;43.534;-5.674;2022-11-20T03:35:21;101815.69;;;14.43;96.69
72438;BME280;60444;43.534;-5.674;2022-11-20T03:37:47;101815.53;;;14.46;96.62
72438;BME280;60444;43.534;-5.674;2022-11-20T03:40:13;101809.28;;;14.44;95.57
72438;BME280;60444;43.534;-5.674;2022-11-20T03:42:39;101833.34;;;14.53;96.02
72438;BME280;60444;43.534;-5.674;2022-11-20T03:45:10;101819.16;;;14.47;95.07
72438;BME280;60444;43.534;-5.674;2022-11-20T03:47:36;101842.19;;;14.59;95.92
72438;BME280;60444;43.534;-5.674;2022-11-20T03:50:02;101836.28;;;14.49;95.49
72438;BME280;60444;43.534;-5.674;2022-11-20T03:52:28;101844.91;;;14.59;94.75
72438;BME280;60444;43.534;-5.674;2022-11-20T03:54:54;101853.13;;;14.57;94.79
72438;BME280;60444;43.534;-5.674;2022-11-20T03:57:19;101822.69;;;14.49;94.78
72438;BME280;60444;43.534;-5.674;2022-11-20T03:59:45;101847.75;;;14.55;95.79
72438;BME280;60444;43.534;-5.674;2022-11-20T04:02:10;101848.50;;;14.59;96.60
72438;BME280;60444;43.534;-5.674;2022-11-20T04:04:35;101842.63;;;14.49;94.62
72438;BME280;60444;43.534;-5.674;2022-11-20T04:07:02;101849.00;;;14.48;96.26
72438;BME280;60444;43.534;-5.674;2022-11-20T04:09:27;101871.81;;;14.65;95.88
72438;BME280;60444;43.534;-5.674;2022-11-20T04:11:53;101855.00;;;14.57;95.41
72438;BME280;60444;43.534;-5.674;2022-11-20T04:14:18;101883.53;;;14.67;95.70
72438;BME280;60444;43.534;-5.674;2022-11-20T04:16:44;101876.63;;;14.60;96.12
72438;BME280;60444;43.534;-5.674;2022-11-20T04:19:11;101891.63;;;14.68;96.23
72438;BME280;60444;43.534;-5.674;2022-11-20T04:21:37;101874.19;;;14.53;95.49
72438;BME280;60444;43.534;-5.674;2022-11-20T04:24:03;101864.41;;;14.49;96.00
72438;BME280;60444;43.534;-5.674;2022-11-20T04:26:29;101898.13;;;14.66;95.88
72438;BME280;60444;43.534;-5.674;2022-11-20T04:28:58;101886.84;;;14.54;96.62
72438;BME280;60444;43.534;-5.674;2022-11-20T04:31:30;101860.88;;;14.47;97.14
72438;BME280;60444;43.534;-5.674;2022-11-20T04:33:59;101868.88;;;14.50;96.88
72438;BME280;60444;43.534;-5.674;2022-11-20T04:36:27;101861.63;;;14.51;96.72
72438;BME280;60444;43.534;-5.674;2022-11-20T04:39:01;101863.28;;;14.53;96.81
72438;BME280;60444;43.534;-5.674;2022-11-20T04:41:31;101872.50;;;14.51;98.61
72438;BME280;60444;43.534;-5.674;2022-11-20T04:44:02;101857.63;;;14.39;98.29
72438;BME280;60444;43.534;-5.674;2022-11-20T04:46:30;101873.44;;;14.50;96.51
72438;BME280;60444;43.534;-5.674;2022-11-20T04:48:56;101872.59;;;14.49;97.40
72438;BME280;60444;43.534;-5.674;2022-11-20T04:51:22;101886.84;;;14.54;100.00
72438;BME280;60444;43.534;-5.674;2022-11-20T04:53:48;101881.84;;;14.45;98.29
72438;BME280;60444;43.534;-5.674;2022-11-20T04:56:17;101849.69;;;14.35;98.52
72438;BME280;60444;43.534;-5.674;2022-11-20T04:58:42;101871.09;;;14.42;99.22
72438;BME280;60444;43.534;-5.674;2022-11-20T05:01:16;101856.00;;;14.35;98.02
72438;BME280;60444;43.534;-5.674;2022-11-20T05:03:43;101833.09;;;14.21;97.38
72438;BME280;60444;43.534;-5.674;2022-11-20T05:06:12;101890.81;;;14.47;97.69
72438;BME280;60444;43.534;-5.674;2022-11-20T05:08:38;101836.94;;;14.17;99.19
72438;BME280;60444;43.534;-5.674;2022-11-20T05:11:12;101889.19;;;14.43;99.01
72438;BME280;60444;43.534;-5.674;2022-11-20T05:13:38;101899.00;;;14.47;97.92
72438;BME280;60444;43.534;-5.674;2022-11-20T05:16:10;101906.19;;;14.48;99.12
72438;BME280;60444;43.534;-5.674;2022-11-20T05:18:36;101902.66;;;14.46;98.80
72438;BME280;60444;43.534;-5.674;2022-11-20T05:21:02;101894.81;;;14.40;100.00
72438;BME280;60444;43.534;-5.674;2022-11-20T05:23:30;101890.56;;;14.33;100.00
72438;BME280;60444;43.534;-5.674;2022-11-20T05:25:56;101885.44;;;14.27;100.00
72438;BME280;60444;43.534;-5.674;2022-11-20T05:28:22;101916.28;;;14.28;100.00
72438;BME280;60444;43.534;-5.674;2022-11-20T05:30:48;101941.53;;;14.30;100.00
72438;BME280;60444;43.534;-5.674;2022-11-20T05:33:14;101924.19;;;14.12;100.00
72438;BME280;60444;43.534;-5.674;2022-11-20T05:35:40;101925.59;;;14.02;100.00
72438;BME280;60444;43.534;-5.674;2022-11-20T05:38:05;101955.63;;;14.19;100.00
72438;BME280;60444;43.534;-5.674;2022-11-20T05:40:31;101959.50;;;14.14;100.00
72438;BME280;60444;43.534;-5.674;2022-11-20T05:42:56;101991.00;;;14.19;100.00
72438;BME280;60444;43.534;-5.674;2022-11-20T05:45:22;102003.41;;;14.26;100.00
72438;BME280;60444;43.534;-5.674;2022-11-20T05:47:48;102022.25;;;14.31;100.00
72438;BME280;60444;43.534;-5.674;2022-11-20T05:50:14;102007.25;;;14.21;100.00
72438;BME280;60444;43.534;-5.674;2022-11-20T05:52:40;102011.63;;;14.25;100.00
72438;BME280;60444;43.534;-5.674;2022-11-20T05:55:05;102013.66;;;14.20;100.00
72438;BME280;60444;43.534;-5.674;2022-11-20T05:57:31;102012.84;;;14.18;100.00
72438;BME280;60444;43.534;-5.674;2022-11-20T05:59:57;102018.34;;;14.16;100.00
72438;BME280;60444;43.534;-5.674;2022-11-20T06:02:22;102053.09;;;14.31;100.00
72438;BME280;60444;43.534;-5.674;2022-11-20T06:04:47;102020.75;;;14.24;100.00
72438;BME280;60444;43.534;-5.674;2022-11-20T06:07:13;102027.03;;;14.24;100.00
72438;BME280;60444;43.534;-5.674;2022-11-20T06:09:39;102004.81;;;14.15;100.00
72438;BME280;60444;43.534;-5.674;2022-11-20T06:12:05;102018.22;;;14.19;100.00
72438;BME280;60444;43.534;-5.674;2022-11-20T06:14:30;102029.63;;;14.29;100.00
72438;BME280;60444;43.534;-5.674;2022-11-20T06:16:56;102014.34;;;14.25;100.00
72438;BME280;60444;43.534;-5.674;2022-11-20T06:19:22;101995.84;;;14.13;100.00
72438;BME280;60444;43.534;-5.674;2022-11-20T06:21:48;102026.66;;;14.33;100.00
72438;BME280;60444;43.534;-5.674;2022-11-20T06:24:15;102012.94;;;14.36;100.00
72438;BME280;60444;43.534;-5.674;2022-11-20T06:26:41;102006.00;;;14.29;100.00
72438;BME280;60444;43.534;-5.674;2022-11-20T06:29:06;102017.91;;;14.27;100.00
72438;BME280;60444;43.534;-5.674;2022-11-20T06:31:32;102023.91;;;14.35;100.00
72438;BME280;60444;43.534;-5.674;2022-11-20T06:34:00;101982.84;;;14.19;100.00
72438;BME280;60444;43.534;-5.674;2022-11-20T06:36:26;102000.50;;;14.31;100.00
72438;BME280;60444;43.534;-5.674;2022-11-20T06:38:52;102016.69;;;14.34;100.00
72438;BME280;60444;43.534;-5.674;2022-11-20T06:41:19;102007.63;;;14.33;100.00
72438;BME280;60444;43.534;-5.674;2022-11-20T06:43:46;102030.09;;;14.38;100.00
72438;BME280;60444;43.534;-5.674;2022-11-20T06:46:13;102021.31;;;14.32;100.00
72438;BME280;60444;43.534;-5.674;2022-11-20T06:48:40;102005.28;;;14.24;100.00
72438;BME280;60444;43.534;-5.674;2022-11-20T06:51:06;102039.19;;;14.37;100.00
72438;BME280;60444;43.534;-5.674;2022-11-20T06:53:33;102035.81;;;14.32;100.00
72438;BME280;60444;43.534;-5.674;2022-11-20T06:55:59;102037.53;;;14.35;100.00
72438;BME280;60444;43.534;-5.674;2022-11-20T06:58:29;102042.22;;;14.31;100.00
72438;BME280;60444;43.534;-5.674;2022-11-20T07:01:10;102048.03;;;14.42;100.00
72438;BME280;60444;43.534;-5.674;2022-11-20T07:03:36;102020.47;;;14.30;100.00
72438;BME280;60444;43.534;-5.674;2022-11-20T07:06:02;102056.09;;;14.45;100.00
72438;BME280;60444;43.534;-5.674;2022-11-20T07:08:28;102042.13;;;14.33;100.00
72438;BME280;60444;43.534;-5.674;2022-11-20T07:10:57;102044.63;;;14.37;100.00
72438;BME280;60444;43.534;-5.674;2022-11-20T07:13:23;102053.88;;;14.33;100.00
72438;BME280;60444;43.534;-5.674;2022-11-20T07:15:49;102072.34;;;14.47;100.00
72438;BME280;60444;43.534;-5.674;2022-11-20T07:18:14;102067.84;;;14.46;100.00
72438;BME280;60444;43.534;-5.674;2022-11-20T07:20:40;102052.22;;;14.31;100.00
72438;BME280;60444;43.534;-5.674;2022-11-20T07:23:05;102054.72;;;14.35;100.00
72438;BME280;60444;43.534;-5.674;2022-11-20T07:25:31;102080.44;;;14.48;100.00
72438;BME280;60444;43.534;-5.674;2022-11-20T07:28:00;102083.38;;;14.44;100.00
72438;BME280;60444;43.534;-5.674;2022-11-20T07:30:29;102073.75;;;14.35;100.00
72438;BME280;60444;43.534;-5.674;2022-11-20T07:32:56;102071.19;;;14.32;100.00
72438;BME280;60444;43.534;-5.674;2022-11-20T07:35:23;102077.38;;;14.36;100.00
72438;BME280;60444;43.534;-5.674;2022-11-20T07:37:48;102095.28;;;14.41;100.00
72438;BME280;60444;43.534;-5.674;2022-11-20T07:40:14;102100.78;;;14.40;100.00
72438;BME280;60444;43.534;-5.674;2022-11-20T07:42:50;102103.84;;;14.32;100.00
72438;BME280;60444;43.534;-5.674;2022-11-20T07:45:18;102120.75;;;14.40;100.00
72438;BME280;60444;43.534;-5.674;2022-11-20T07:47:43;102125.56;;;14.34;100.00
72438;BME280;60444;43.534;-5.674;2022-11-20T07:50:10;102138.09;;;14.38;100.00
72438;BME280;60444;43.534;-5.674;2022-11-20T07:52:39;102148.09;;;14.37;100.00
72438;BME280;60444;43.534;-5.674;2022-11-20T07:55:05;102150.13;;;14.32;100.00
72438;BME280;60444;43.534;-5.674;2022-11-20T07:57:31;102120.03;;;14.14;100.00
72438;BME280;60444;43.534;-5.674;2022-11-20T07:59:56;102170.16;;;14.31;100.00
72438;BME280;60444;43.534;-5.674;2022-11-20T08:02:22;102174.84;;;14.28;100.00
72438;BME280;60444;43.534;-5.674;2022-11-20T08:04:47;102180.13;;;14.31;100.00
72438;BME280;60444;43.534;-5.674;2022-11-20T08:07:13;102173.09;;;14.25;100.00
72438;BME280;60444;43.534;-5.674;2022-11-20T08:09:39;102195.66;;;14.29;100.00
72438;BME280;60444;43.534;-5.674;2022-11-20T08:12:04;102183.78;;;14.30;100.00
72438;BME280;60444;43.534;-5.674;2022-11-20T08:14:49;102205.25;;;14.37;100.00
72438;BME280;60444;43.534;-5.674;2022-11-20T08:17:14;102173.94;;;14.27;100.00
72438;BME280;60444;43.534;-5.674;2022-11-20T08:19:39;102173.03;;;14.27;100.00
72438;BME280;60444;43.534;-5.674;2022-11-20T08:22:05;102197.09;;;14.37;100.00
72438;BME280;60444;43.534;-5.674;2022-11-20T08:24:30;102188.97;;;14.36;100.00
72438;BME280;60444;43.534;-5.674;2022-11-20T08:26:59;102197.91;;;14.39;100.00
72438;BME280;60444;43.534;-5.674;2022-11-20T08:29:28;102167.59;;;14.27;100.00
72438;BME280;60444;43.534;-5.674;2022-11-20T08:31:53;102174.47;;;14.35;100.00
72438;BME280;60444;43.534;-5.674;2022-11-20T08:34:19;102208.25;;;14.51;100.00
72438;BME280;60444;43.534;-5.674;2022-11-20T08:36:44;102184.28;;;14.39;100.00
72438;BME280;60444;43.534;-5.674;2022-11-20T08:39:14;102214.41;;;14.57;100.00
72438;BME280;60444;43.534;-5.674;2022-11-20T08:41:39;102226.13;;;14.59;100.00
72438;BME280;60444;43.534;-5.674;2022-11-20T08:44:06;102221.63;;;14.57;100.00
72438;BME280;60444;43.534;-5.674;2022-11-20T08:46:35;102216.31;;;14.54;100.00
72438;BME280;60444;43.534;-5.674;2022-11-20T08:49:08;102229.63;;;14.62;100.00
72438;BME280;60444;43.534;-5.674;2022-11-20T08:51:34;102247.63;;;14.65;100.00
72438;BME280;60444;43.534;-5.674;2022-11-20T08:54:00;102219.38;;;14.47;100.00
72438;BME280;60444;43.534;-5.674;2022-11-20T08:56:28;102214.81;;;14.47;100.00
72438;BME280;60444;43.534;-5.674;2022-11-20T08:58:54;102243.84;;;14.69;100.00
72438;BME280;60444;43.534;-5.674;2022-11-20T09:01:21;102210.31;;;14.46;100.00
72438;BME280;60444;43.534;-5.674;2022-11-20T09:03:47;102257.38;;;14.70;100.00
72438;BME280;60444;43.534;-5.674;2022-11-20T09:06:13;102248.41;;;14.68;100.00
72438;BME280;60444;43.534;-5.674;2022-11-20T09:08:39;102256.25;;;14.76;100.00
72438;BME280;60444;43.534;-5.674;2022-11-20T09:11:05;102261.16;;;14.68;100.00
72438;BME280;60444;43.534;-5.674;2022-11-20T09:13:32;102248.59;;;14.64;100.00
72438;BME280;60444;43.534;-5.674;2022-11-20T09:16:06;102242.34;;;14.62;100.00
72438;BME280;60444;43.534;-5.674;2022-11-20T09:18:33;102227.47;;;14.48;100.00
72438;BME280;60444;43.534;-5.674;2022-11-20T09:21:00;102264.22;;;14.80;100.00
72438;BME280;60444;43.534;-5.674;2022-11-20T09:23:27;102256.16;;;14.77;100.00
72438;BME280;60444;43.534;-5.674;2022-11-20T09:25:55;102234.69;;;14.70;100.00
72438;BME280;60444;43.534;-5.674;2022-11-20T09:28:25;102248.88;;;14.78;100.00
72438;BME280;60444;43.534;-5.674;2022-11-20T09:30:50;102242.63;;;14.76;100.00
72438;BME280;60444;43.534;-5.674;2022-11-20T09:33:16;102243.59;;;14.75;100.00
72438;BME280;60444;43.534;-5.674;2022-11-20T09:35:43;102258.56;;;14.85;100.00
72438;BME280;60444;43.534;-5.674;2022-11-20T09:38:09;102267.16;;;14.96;100.00
72438;BME280;60444;43.534;-5.674;2022-11-20T09:40:39;102267.34;;;14.91;100.00
72438;BME280;60444;43.534;-5.674;2022-11-20T09:46:17;102280.31;;;15.06;100.00
72438;BME280;60444;43.534;-5.674;2022-11-20T09:48:58;102256.59;;;14.88;100.00
72438;BME280;60444;43.534;-5.674;2022-11-20T09:52:04;102303.69;;;15.12;100.00
72438;BME280;60444;43.534;-5.674;2022-11-20T09:54:36;102299.59;;;15.22;100.00
72438;BME280;60444;43.534;-5.674;2022-11-20T09:57:08;102297.69;;;15.24;100.00
72438;BME280;60444;43.534;-5.674;2022-11-20T10:08:04;102315.13;;;15.41;100.00
72438;BME280;60444;43.534;-5.674;2022-11-20T10:10:41;102313.63;;;15.33;100.00
72438;BME280;60444;43.534;-5.674;2022-11-20T10:13:24;102293.94;;;15.26;100.00
72438;BME280;60444;43.534;-5.674;2022-11-20T10:21:11;102314.81;;;15.47;100.00
72438;BME280;60444;43.534;-5.674;2022-11-20T10:28:56;102306.06;;;15.39;100.00
72438;BME280;60444;43.534;-5.674;2022-11-20T10:31:37;102306.94;;;15.41;100.00
72438;BME280;60444;43.534;-5.674;2022-11-20T10:36:47;102338.88;;;15.58;100.00
72438;BME280;60444;43.534;-5.674;2022-11-20T10:39:24;102303.25;;;15.42;100.00
72438;BME280;60444;43.534;-5.674;2022-11-20T10:41:52;102295.28;;;15.36;100.00
72438;BME280;60444;43.534;-5.674;2022-11-20T10:44:26;102320.16;;;15.50;100.00
72438;BME280;60444;43.534;-5.674;2022-11-20T10:47:17;102336.03;;;15.61;100.00
72438;BME280;60444;43.534;-5.674;2022-11-20T10:49:47;102304.22;;;15.41;99.87
72438;BME280;60444;43.534;-5.674;2022-11-20T11:01:16;102308.41;;;15.87;96.86
72438;BME280;60444;43.534;-5.674;2022-11-20T11:03:42;102300.22;;;15.87;96.73
72438;BME280;60444;43.534;-5.674;2022-11-20T11:08:47;102307.97;;;15.96;97.98
72438;BME280;60444;43.534;-5.674;2022-11-20T11:11:23;102310.63;;;15.98;95.15
72438;BME280;60444;43.534;-5.674;2022-11-20T11:13:50;102298.19;;;15.92;96.92
72438;BME280;60444;43.534;-5.674;2022-11-20T11:16:23;102298.50;;;16.05;93.14
72438;BME280;60444;43.534;-5.674;2022-11-20T11:18:49;102289.41;;;16.04;93.91
72438;BME280;60444;43.534;-5.674;2022-11-20T11:21:21;102287.56;;;16.05;93.32
72438;BME280;60444;43.534;-5.674;2022-11-20T11:23:58;102263.81;;;15.88;93.12
72438;BME280;60444;43.534;-5.674;2022-11-20T11:26:24;102268.09;;;15.94;93.17
72438;BME280;60444;43.534;-5.674;2022-11-20T11:29:01;102259.22;;;15.89;92.76
72438;BME280;60444;43.534;-5.674;2022-11-20T11:31:33;102279.41;;;16.03;93.65
72438;BME280;60444;43.534;-5.674;2022-11-20T11:34:15;102242.91;;;15.87;92.90
72438;BME280;60444;43.534;-5.674;2022-11-20T11:36:42;102271.31;;;16.02;93.58
72438;BME280;60444;43.534;-5.674;2022-11-20T11:39:13;102265.84;;;16.02;93.98
72438;BME280;60444;43.534;-5.674;2022-11-20T11:41:40;102251.78;;;15.92;92.41
72438;BME280;60444;43.534;-5.674;2022-11-20T11:44:19;102289.31;;;16.06;92.43
72438;BME280;60444;43.534;-5.674;2022-11-20T11:47:05;102281.28;;;16.03;90.73
72438;BME280;60444;43.534;-5.674;2022-11-20T11:49:34;102250.81;;;15.93;89.39
72438;BME280;60444;43.534;-5.674;2022-11-20T11:52:16;102283.78;;;16.07;91.10
72438;BME280;60444;43.534;-5.674;2022-11-20T12:00:11;102269.25;;;16.07;92.83
72438;BME280;60444;43.534;-5.674;2022-11-20T12:05:19;102264.59;;;16.09;92.38
72438;BME280;60444;43.534;-5.674;2022-11-20T12:08:32;102266.88;;;16.18;91.38
72438;BME280;60444;43.534;-5.674;2022-11-20T12:13:04;102235.25;;;16.14;92.39
72438;BME280;60444;43.534;-5.674;2022-11-20T12:15:34;102222.47;;;16.14;92.90
72438;BME280;60444;43.534;-5.674;2022-11-20T12:18:00;102242.53;;;16.32;91.49
72438;BME280;60444;43.534;-5.674;2022-11-20T12:20:29;102237.81;;;16.35;91.72
72438;BME280;60444;43.534;-5.674;2022-11-20T12:25:35;102210.13;;;16.24;89.91
72438;BME280;60444;43.534;-5.674;2022-11-20T12:37:14;102181.41;;;16.34;89.76
72438;BME280;60444;43.534;-5.674;2022-11-20T12:39:42;102177.84;;;16.32;86.86
72438;BME280;60444;43.534;-5.674;2022-11-20T12:56:21;102183.81;;;16.40;86.87
72438;BME280;60444;43.534;-5.674;2022-11-20T13:01:38;102181.72;;;16.45;90.39
72438;BME280;60444;43.534;-5.674;2022-11-20T13:06:45;102152.47;;;16.30;90.26
72438;BME280;60444;43.534;-5.674;2022-11-20T13:09:15;102151.66;;;16.28;86.76
72438;BME280;60444;43.534;-5.674;2022-11-20T13:14:16;102179.31;;;16.39;88.33
72438;BME280;60444;43.534;-5.674;2022-11-20T13:19:32;102139.78;;;16.29;89.65
72438;BME280;60444;43.534;-5.674;2022-11-20T13:21:57;102127.34;;;16.24;88.28
72438;BME280;60444;43.534;-5.674;2022-11-20T13:24:28;102142.13;;;16.37;88.00
72438;BME280;60444;43.534;-5.674;2022-11-20T13:29:30;102117.69;;;16.34;84.20
72438;BME280;60444;43.534;-5.674;2022-11-20T13:32:15;102121.00;;;16.40;85.21
72438;BME280;60444;43.534;-5.674;2022-11-20T13:34:59;102063.41;;;16.11;84.44
72438;BME280;60444;43.534;-5.674;2022-11-20T13:37:34;102095.53;;;16.40;84.62
72438;BME280;60444;43.534;-5.674;2022-11-20T13:42:43;102077.31;;;16.40;89.62
72438;BME280;60444;43.534;-5.674;2022-11-20T13:45:21;102065.16;;;16.29;88.68
72438;BME280;60444;43.534;-5.674;2022-11-20T13:47:51;102066.59;;;16.36;88.47
72438;BME280;60444;43.534;-5.674;2022-11-20T13:50:17;102049.69;;;16.29;88.30
72438;BME280;60444;43.534;-5.674;2022-11-20T13:55:42;102085.50;;;16.40;86.47
72438;BME280;60444;43.534;-5.674;2022-11-20T14:01:16;102076.19;;;16.44;86.18
72438;BME280;60444;43.534;-5.674;2022-11-20T14:03:42;102078.03;;;16.44;85.24
72438;BME280;60444;43.534;-5.674;2022-11-20T14:06:39;102075.28;;;16.44;85.23
72438;BME280;60444;43.534;-5.674;2022-11-20T14:09:02;102085.91;;;16.50;86.40
72438;BME280;60444;43.534;-5.674;2022-11-20T14:11:29;102090.16;;;16.55;84.43
72438;BME280;60444;43.534;-5.674;2022-11-20T14:14:04;102106.06;;;16.65;86.37
72438;BME280;60444;43.534;-5.674;2022-11-20T14:16:33;102099.88;;;16.61;86.04
72438;BME280;60444;43.534;-5.674;2022-11-20T14:21:53;102116.69;;;16.71;84.96
72438;BME280;60444;43.534;-5.674;2022-11-20T14:24:23;102102.63;;;16.61;85.31
72438;BME280;60444;43.534;-5.674;2022-11-20T14:26:50;102101.66;;;16.62;87.27